sensor_id;sensor_type;location;lat;lon;timestamp;P1;durP1;ratioP1;P2;durP2;ratioP2
49948;SDS011;35840;45.982;8.890;2023-05-07T00:01:29;2.83;;;1.98;;
49948;SDS011;35840;45.982;8.890;2023-05-07T00:03:56;4.85;;;1.70;;
49948;SDS011;35840;45.982;8.890;2023-05-07T00:06:23;3.42;;;1.73;;
49948;SDS011;35840;45.982;8.890;2023-05-07T00:08:50;3.20;;;1.80;;
49948;SDS011;35840;45.982;8.890;2023-05-07T00:11:17;5.40;;;2.13;;
49948;SDS011;35840;45.982;8.890;2023-05-07T00:13:43;2.95;;;1.90;;
49948;SDS011;35840;45.982;8.890;2023-05-07T00:16:10;3.95;;;1.77;;
49948;SDS011;35840;45.982;8.890;2023-05-07T00:18:37;3.97;;;1.85;;
49948;SDS011;35840;45.982;8.890;2023-05-07T00:21:04;3.10;;;1.80;;
49948;SDS011;35840;45.982;8.890;2023-05-07T00:23:31;3.78;;;2.05;;
49948;SDS011;35840;45.982;8.890;2023-05-07T00:25:57;3.83;;;1.48;;
49948;SDS011;35840;45.982;8.890;2023-05-07T00:28:24;3.42;;;1.73;;
49948;SDS011;35840;45.982;8.890;2023-05-07T00:30:51;2.83;;;1.65;;
49948;SDS011;35840;45.982;8.890;2023-05-07T00:33:18;6.05;;;2.08;;
49948;SDS011;35840;45.982;8.890;2023-05-07T00:35:46;4.40;;;1.90;;
49948;SDS011;35840;45.982;8.890;2023-05-07T00:38:13;4.72;;;1.98;;
49948;SDS011;35840;45.982;8.890;2023-05-07T00:40:40;2.67;;;1.42;;
49948;SDS011;35840;45.982;8.890;2023-05-07T00:43:07;5.50;;;2.28;;
49948;SDS011;35840;45.982;8.890;2023-05-07T00:45:35;4.53;;;1.80;;
49948;SDS011;35840;45.982;8.890;2023-05-07T00:48:02;4.65;;;1.92;;
49948;SDS011;35840;45.982;8.890;2023-05-07T00:50:29;2.88;;;1.98;;
49948;SDS011;35840;45.982;8.890;2023-05-07T00:52:57;8.00;;;2.30;;
49948;SDS011;35840;45.982;8.890;2023-05-07T00:55:24;3.40;;;2.00;;
49948;SDS011;35840;45.982;8.890;2023-05-07T00:57:51;4.80;;;1.77;;
49948;SDS011;35840;45.982;8.890;2023-05-07T01:00:18;3.47;;;2.28;;
49948;SDS011;35840;45.982;8.890;2023-05-07T01:02:46;4.50;;;2.70;;
49948;SDS011;35840;45.982;8.890;2023-05-07T01:05:14;6.55;;;2.60;;
49948;SDS011;35840;45.982;8.890;2023-05-07T01:07:43;8.52;;;2.35;;
49948;SDS011;35840;45.982;8.890;2023-05-07T01:10:11;3.90;;;2.70;;
49948;SDS011;35840;45.982;8.890;2023-05-07T01:12:39;3.38;;;2.72;;
49948;SDS011;35840;45.982;8.890;2023-05-07T01:15:07;5.05;;;2.53;;
49948;SDS011;35840;45.982;8.890;2023-05-07T01:17:36;3.97;;;2.20;;
49948;SDS011;35840;45.982;8.890;2023-05-07T01:20:06;3.63;;;2.22;;
49948;SDS011;35840;45.982;8.890;2023-05-07T01:22:34;2.80;;;1.92;;
49948;SDS011;35840;45.982;8.890;2023-05-07T01:25:03;3.53;;;2.70;;
49948;SDS011;35840;45.982;8.890;2023-05-07T01:27:31;4.47;;;2.63;;
49948;SDS011;35840;45.982;8.890;2023-05-07T01:30:00;3.50;;;3.05;;
49948;SDS011;35840;45.982;8.890;2023-05-07T01:32:49;4.80;;;2.67;;
49948;SDS011;35840;45.982;8.890;2023-05-07T01:35:21;3.38;;;2.30;;
49948;SDS011;35840;45.982;8.890;2023-05-07T01:37:51;5.22;;;2.83;;
49948;SDS011;35840;45.982;8.890;2023-05-07T01:40:18;3.55;;;3.20;;
49948;SDS011;35840;45.982;8.890;2023-05-07T01:42:46;3.65;;;2.40;;
49948;SDS011;35840;45.982;8.890;2023-05-07T01:45:14;4.80;;;2.70;;
49948;SDS011;35840;45.982;8.890;2023-05-07T01:47:41;6.65;;;2.50;;
49948;SDS011;35840;45.982;8.890;2023-05-07T01:50:09;4.72;;;2.80;;
49948;SDS011;35840;45.982;8.890;2023-05-07T01:52:39;3.63;;;2.67;;
49948;SDS011;35840;45.982;8.890;2023-05-07T01:55:06;5.45;;;2.20;;
49948;SDS011;35840;45.982;8.890;2023-05-07T01:57:33;3.63;;;2.13;;
49948;SDS011;35840;45.982;8.890;2023-05-07T02:00:00;4.38;;;2.35;;
49948;SDS011;35840;45.982;8.890;2023-05-07T02:02:40;3.80;;;2.60;;
49948;SDS011;35840;45.982;8.890;2023-05-07T02:05:16;5.15;;;2.90;;
49948;SDS011;35840;45.982;8.890;2023-05-07T02:07:46;3.00;;;2.10;;
49948;SDS011;35840;45.982;8.890;2023-05-07T02:10:14;5.13;;;2.80;;
49948;SDS011;35840;45.982;8.890;2023-05-07T02:12:41;6.18;;;2.35;;
49948;SDS011;35840;45.982;8.890;2023-05-07T02:15:09;3.65;;;2.08;;
49948;SDS011;35840;45.982;8.890;2023-05-07T02:17:57;4.75;;;2.35;;
49948;SDS011;35840;45.982;8.890;2023-05-07T02:20:34;3.05;;;2.40;;
49948;SDS011;35840;45.982;8.890;2023-05-07T02:23:02;3.42;;;2.05;;
49948;SDS011;35840;45.982;8.890;2023-05-07T02:25:29;5.18;;;2.10;;
49948;SDS011;35840;45.982;8.890;2023-05-07T02:27:57;3.58;;;2.30;;
49948;SDS011;35840;45.982;8.890;2023-05-07T02:30:34;6.10;;;2.83;;
49948;SDS011;35840;45.982;8.890;2023-05-07T02:33:03;5.45;;;2.03;;
49948;SDS011;35840;45.982;8.890;2023-05-07T02:35:30;4.88;;;2.65;;
49948;SDS011;35840;45.982;8.890;2023-05-07T02:37:56;5.57;;;2.38;;
49948;SDS011;35840;45.982;8.890;2023-05-07T02:40:24;3.63;;;2.25;;
49948;SDS011;35840;45.982;8.890;2023-05-07T02:42:51;2.42;;;2.13;;
49948;SDS011;35840;45.982;8.890;2023-05-07T02:45:18;4.75;;;2.17;;
49948;SDS011;35840;45.982;8.890;2023-05-07T02:47:45;3.20;;;2.78;;
49948;SDS011;35840;45.982;8.890;2023-05-07T02:50:13;3.42;;;2.83;;
49948;SDS011;35840;45.982;8.890;2023-05-07T02:52:39;5.35;;;3.17;;
49948;SDS011;35840;45.982;8.890;2023-05-07T02:55:06;3.83;;;2.58;;
49948;SDS011;35840;45.982;8.890;2023-05-07T02:57:34;2.60;;;2.40;;
49948;SDS011;35840;45.982;8.890;2023-05-07T03:00:09;3.28;;;2.03;;
49948;SDS011;35840;45.982;8.890;2023-05-07T03:02:38;2.58;;;2.30;;
49948;SDS011;35840;45.982;8.890;2023-05-07T03:05:05;5.10;;;2.70;;
49948;SDS011;35840;45.982;8.890;2023-05-07T03:07:32;3.08;;;2.47;;
49948;SDS011;35840;45.982;8.890;2023-05-07T03:09:59;4.70;;;2.70;;
49948;SDS011;35840;45.982;8.890;2023-05-07T03:12:26;3.05;;;2.30;;
49948;SDS011;35840;45.982;8.890;2023-05-07T03:14:53;5.22;;;2.47;;
49948;SDS011;35840;45.982;8.890;2023-05-07T03:17:20;4.80;;;2.47;;
49948;SDS011;35840;45.982;8.890;2023-05-07T03:19:47;5.60;;;3.08;;
49948;SDS011;35840;45.982;8.890;2023-05-07T03:22:13;2.97;;;2.63;;
49948;SDS011;35840;45.982;8.890;2023-05-07T03:24:40;3.97;;;2.45;;
49948;SDS011;35840;45.982;8.890;2023-05-07T03:27:07;3.90;;;2.80;;
49948;SDS011;35840;45.982;8.890;2023-05-07T03:29:35;5.63;;;2.90;;
49948;SDS011;35840;45.982;8.890;2023-05-07T03:32:01;4.38;;;2.45;;
49948;SDS011;35840;45.982;8.890;2023-05-07T03:34:28;4.63;;;2.30;;
49948;SDS011;35840;45.982;8.890;2023-05-07T03:36:55;3.42;;;2.38;;
49948;SDS011;35840;45.982;8.890;2023-05-07T03:39:23;3.13;;;2.60;;
49948;SDS011;35840;45.982;8.890;2023-05-07T03:41:49;4.70;;;2.90;;
49948;SDS011;35840;45.982;8.890;2023-05-07T03:44:16;4.55;;;2.20;;
49948;SDS011;35840;45.982;8.890;2023-05-07T03:46:43;4.05;;;1.95;;
49948;SDS011;35840;45.982;8.890;2023-05-07T03:49:11;3.67;;;2.25;;
49948;SDS011;35840;45.982;8.890;2023-05-07T03:51:39;2.00;;;1.75;;
49948;SDS011;35840;45.982;8.890;2023-05-07T03:54:07;3.88;;;1.67;;
49948;SDS011;35840;45.982;8.890;2023-05-07T03:56:40;3.15;;;2.30;;
49948;SDS011;35840;45.982;8.890;2023-05-07T03:59:07;3.70;;;1.83;;
49948;SDS011;35840;45.982;8.890;2023-05-07T04:01:34;2.55;;;2.22;;
49948;SDS011;35840;45.982;8.890;2023-05-07T04:04:01;2.15;;;1.90;;
49948;SDS011;35840;45.982;8.890;2023-05-07T04:06:28;6.40;;;2.47;;
49948;SDS011;35840;45.982;8.890;2023-05-07T04:08:54;2.72;;;1.83;;
49948;SDS011;35840;45.982;8.890;2023-05-07T04:11:21;3.97;;;1.92;;
49948;SDS011;35840;45.982;8.890;2023-05-07T04:13:48;3.70;;;2.10;;
49948;SDS011;35840;45.982;8.890;2023-05-07T04:16:19;2.03;;;1.73;;
49948;SDS011;35840;45.982;8.890;2023-05-07T04:18:46;2.60;;;2.08;;
49948;SDS011;35840;45.982;8.890;2023-05-07T04:21:19;3.67;;;2.05;;
49948;SDS011;35840;45.982;8.890;2023-05-07T04:23:49;3.45;;;1.77;;
49948;SDS011;35840;45.982;8.890;2023-05-07T04:26:16;5.00;;;1.60;;
49948;SDS011;35840;45.982;8.890;2023-05-07T04:28:44;1.80;;;1.70;;
49948;SDS011;35840;45.982;8.890;2023-05-07T04:31:11;7.75;;;2.22;;
49948;SDS011;35840;45.982;8.890;2023-05-07T04:33:39;5.43;;;1.80;;
49948;SDS011;35840;45.982;8.890;2023-05-07T04:36:09;6.90;;;1.90;;
49948;SDS011;35840;45.982;8.890;2023-05-07T04:38:43;4.03;;;1.95;;
49948;SDS011;35840;45.982;8.890;2023-05-07T04:41:12;3.05;;;1.52;;
49948;SDS011;35840;45.982;8.890;2023-05-07T04:43:40;3.47;;;1.70;;
49948;SDS011;35840;45.982;8.890;2023-05-07T04:46:09;2.00;;;1.65;;
49948;SDS011;35840;45.982;8.890;2023-05-07T04:48:36;3.38;;;1.73;;
49948;SDS011;35840;45.982;8.890;2023-05-07T04:51:04;2.72;;;1.70;;
49948;SDS011;35840;45.982;8.890;2023-05-07T04:53:32;1.77;;;1.67;;
49948;SDS011;35840;45.982;8.890;2023-05-07T04:55:59;14.13;;;2.20;;
49948;SDS011;35840;45.982;8.890;2023-05-07T04:58:31;3.00;;;1.55;;
49948;SDS011;35840;45.982;8.890;2023-05-07T05:00:59;5.05;;;1.77;;
49948;SDS011;35840;45.982;8.890;2023-05-07T05:03:27;2.20;;;1.92;;
49948;SDS011;35840;45.982;8.890;2023-05-07T05:05:54;2.05;;;1.85;;
49948;SDS011;35840;45.982;8.890;2023-05-07T05:08:22;4.13;;;1.60;;
49948;SDS011;35840;45.982;8.890;2023-05-07T05:10:49;2.85;;;2.13;;
49948;SDS011;35840;45.982;8.890;2023-05-07T05:13:17;2.08;;;1.90;;
49948;SDS011;35840;45.982;8.890;2023-05-07T05:15:45;2.15;;;1.65;;
49948;SDS011;35840;45.982;8.890;2023-05-07T05:18:12;1.85;;;1.75;;
49948;SDS011;35840;45.982;8.890;2023-05-07T05:20:39;7.70;;;2.58;;
49948;SDS011;35840;45.982;8.890;2023-05-07T05:23:07;4.07;;;2.17;;
49948;SDS011;35840;45.982;8.890;2023-05-07T05:25:34;5.57;;;2.33;;
49948;SDS011;35840;45.982;8.890;2023-05-07T05:28:01;3.72;;;2.08;;
49948;SDS011;35840;45.982;8.890;2023-05-07T05:30:32;2.25;;;2.05;;
49948;SDS011;35840;45.982;8.890;2023-05-07T05:32:58;3.22;;;2.20;;
49948;SDS011;35840;45.982;8.890;2023-05-07T05:35:26;3.03;;;2.10;;
49948;SDS011;35840;45.982;8.890;2023-05-07T05:37:53;5.63;;;2.00;;
49948;SDS011;35840;45.982;8.890;2023-05-07T05:40:21;3.67;;;1.65;;
49948;SDS011;35840;45.982;8.890;2023-05-07T05:42:49;4.13;;;2.08;;
49948;SDS011;35840;45.982;8.890;2023-05-07T05:45:16;2.92;;;1.70;;
49948;SDS011;35840;45.982;8.890;2023-05-07T05:47:44;4.95;;;1.83;;
49948;SDS011;35840;45.982;8.890;2023-05-07T05:50:12;6.10;;;2.10;;
49948;SDS011;35840;45.982;8.890;2023-05-07T05:52:39;2.58;;;1.95;;
49948;SDS011;35840;45.982;8.890;2023-05-07T05:55:07;4.03;;;1.77;;
49948;SDS011;35840;45.982;8.890;2023-05-07T05:57:36;2.13;;;1.90;;
49948;SDS011;35840;45.982;8.890;2023-05-07T06:00:03;4.50;;;2.10;;
49948;SDS011;35840;45.982;8.890;2023-05-07T06:02:32;5.25;;;2.08;;
49948;SDS011;35840;45.982;8.890;2023-05-07T06:04:59;2.33;;;2.10;;
49948;SDS011;35840;45.982;8.890;2023-05-07T06:07:27;3.33;;;2.63;;
49948;SDS011;35840;45.982;8.890;2023-05-07T06:09:54;4.00;;;2.50;;
49948;SDS011;35840;45.982;8.890;2023-05-07T06:12:22;1.92;;;1.80;;
49948;SDS011;35840;45.982;8.890;2023-05-07T06:14:48;3.17;;;1.85;;
49948;SDS011;35840;45.982;8.890;2023-05-07T06:17:16;3.95;;;2.33;;
49948;SDS011;35840;45.982;8.890;2023-05-07T06:19:46;3.58;;;1.95;;
49948;SDS011;35840;45.982;8.890;2023-05-07T06:22:16;2.90;;;2.15;;
49948;SDS011;35840;45.982;8.890;2023-05-07T06:24:43;2.53;;;2.33;;
49948;SDS011;35840;45.982;8.890;2023-05-07T06:27:09;3.25;;;2.20;;
49948;SDS011;35840;45.982;8.890;2023-05-07T06:29:37;2.22;;;1.70;;
49948;SDS011;35840;45.982;8.890;2023-05-07T06:32:11;3.05;;;2.10;;
49948;SDS011;35840;45.982;8.890;2023-05-07T06:34:41;4.38;;;2.38;;
49948;SDS011;35840;45.982;8.890;2023-05-07T06:37:08;1.95;;;1.73;;
49948;SDS011;35840;45.982;8.890;2023-05-07T06:39:52;2.50;;;2.20;;
49948;SDS011;35840;45.982;8.890;2023-05-07T06:42:19;6.13;;;2.28;;
49948;SDS011;35840;45.982;8.890;2023-05-07T06:44:47;4.32;;;1.75;;
49948;SDS011;35840;45.982;8.890;2023-05-07T06:47:16;2.65;;;1.70;;
49948;SDS011;35840;45.982;8.890;2023-05-07T06:49:46;2.90;;;1.90;;
49948;SDS011;35840;45.982;8.890;2023-05-07T06:52:15;3.67;;;2.65;;
49948;SDS011;35840;45.982;8.890;2023-05-07T06:54:43;3.92;;;1.83;;
49948;SDS011;35840;45.982;8.890;2023-05-07T06:57:12;5.65;;;2.42;;
49948;SDS011;35840;45.982;8.890;2023-05-07T06:59:40;1.98;;;1.77;;
49948;SDS011;35840;45.982;8.890;2023-05-07T07:02:07;3.03;;;1.73;;
49948;SDS011;35840;45.982;8.890;2023-05-07T07:04:34;3.05;;;2.03;;
49948;SDS011;35840;45.982;8.890;2023-05-07T07:07:05;3.00;;;1.73;;
49948;SDS011;35840;45.982;8.890;2023-05-07T07:09:32;3.67;;;2.00;;
49948;SDS011;35840;45.982;8.890;2023-05-07T07:12:02;4.55;;;1.90;;
49948;SDS011;35840;45.982;8.890;2023-05-07T07:14:30;4.30;;;2.55;;
49948;SDS011;35840;45.982;8.890;2023-05-07T07:16:57;2.35;;;1.80;;
49948;SDS011;35840;45.982;8.890;2023-05-07T07:19:25;1.77;;;1.67;;
49948;SDS011;35840;45.982;8.890;2023-05-07T07:21:54;3.35;;;2.00;;
49948;SDS011;35840;45.982;8.890;2023-05-07T07:24:21;2.08;;;1.65;;
49948;SDS011;35840;45.982;8.890;2023-05-07T07:26:52;2.03;;;1.77;;
49948;SDS011;35840;45.982;8.890;2023-05-07T07:29:20;2.15;;;1.95;;
49948;SDS011;35840;45.982;8.890;2023-05-07T07:31:48;2.47;;;1.90;;
49948;SDS011;35840;45.982;8.890;2023-05-07T07:34:19;3.50;;;1.60;;
49948;SDS011;35840;45.982;8.890;2023-05-07T07:36:47;3.70;;;1.67;;
49948;SDS011;35840;45.982;8.890;2023-05-07T07:39:16;1.80;;;1.60;;
49948;SDS011;35840;45.982;8.890;2023-05-07T07:41:45;1.60;;;1.50;;
49948;SDS011;35840;45.982;8.890;2023-05-07T07:44:12;2.13;;;1.63;;
49948;SDS011;35840;45.982;8.890;2023-05-07T07:46:46;4.20;;;1.45;;
49948;SDS011;35840;45.982;8.890;2023-05-07T07:49:14;1.77;;;1.67;;
49948;SDS011;35840;45.982;8.890;2023-05-07T07:51:42;2.65;;;1.50;;
49948;SDS011;35840;45.982;8.890;2023-05-07T07:54:10;1.40;;;1.30;;
49948;SDS011;35840;45.982;8.890;2023-05-07T07:56:37;2.33;;;1.90;;
49948;SDS011;35840;45.982;8.890;2023-05-07T07:59:05;2.50;;;1.70;;
49948;SDS011;35840;45.982;8.890;2023-05-07T08:01:34;2.00;;;1.88;;
49948;SDS011;35840;45.982;8.890;2023-05-07T08:04:01;4.05;;;1.83;;
49948;SDS011;35840;45.982;8.890;2023-05-07T08:06:32;2.38;;;1.73;;
49948;SDS011;35840;45.982;8.890;2023-05-07T08:08:59;2.45;;;1.67;;
49948;SDS011;35840;45.982;8.890;2023-05-07T08:11:27;5.97;;;1.90;;
49948;SDS011;35840;45.982;8.890;2023-05-07T08:13:54;3.97;;;1.77;;
49948;SDS011;35840;45.982;8.890;2023-05-07T08:16:22;2.85;;;1.80;;
49948;SDS011;35840;45.982;8.890;2023-05-07T08:18:51;5.88;;;2.03;;
49948;SDS011;35840;45.982;8.890;2023-05-07T08:21:18;2.88;;;1.63;;
49948;SDS011;35840;45.982;8.890;2023-05-07T08:23:44;2.28;;;2.05;;
49948;SDS011;35840;45.982;8.890;2023-05-07T08:26:11;3.00;;;1.48;;
49948;SDS011;35840;45.982;8.890;2023-05-07T08:28:38;2.03;;;1.13;;
49948;SDS011;35840;45.982;8.890;2023-05-07T08:31:06;2.80;;;1.40;;
49948;SDS011;35840;45.982;8.890;2023-05-07T08:33:36;4.30;;;1.20;;
49948;SDS011;35840;45.982;8.890;2023-05-07T08:36:04;1.45;;;1.35;;
49948;SDS011;35840;45.982;8.890;2023-05-07T08:38:32;1.95;;;1.50;;
49948;SDS011;35840;45.982;8.890;2023-05-07T08:40:58;1.27;;;1.17;;
49948;SDS011;35840;45.982;8.890;2023-05-07T08:43:27;2.97;;;1.10;;
49948;SDS011;35840;45.982;8.890;2023-05-07T08:45:55;2.75;;;1.60;;
49948;SDS011;35840;45.982;8.890;2023-05-07T08:48:26;5.30;;;1.17;;
49948;SDS011;35840;45.982;8.890;2023-05-07T08:51:04;1.17;;;1.08;;
49948;SDS011;35840;45.982;8.890;2023-05-07T08:53:31;1.30;;;1.20;;
49948;SDS011;35840;45.982;8.890;2023-05-07T08:55:59;1.33;;;1.23;;
49948;SDS011;35840;45.982;8.890;2023-05-07T08:58:27;1.60;;;1.27;;
49948;SDS011;35840;45.982;8.890;2023-05-07T09:00:55;1.75;;;1.20;;
49948;SDS011;35840;45.982;8.890;2023-05-07T09:03:23;3.17;;;1.63;;
49948;SDS011;35840;45.982;8.890;2023-05-07T09:05:52;2.33;;;1.50;;
49948;SDS011;35840;45.982;8.890;2023-05-07T09:08:23;1.60;;;1.50;;
49948;SDS011;35840;45.982;8.890;2023-05-07T09:10:53;3.55;;;1.50;;
49948;SDS011;35840;45.982;8.890;2023-05-07T09:13:22;2.75;;;1.17;;
49948;SDS011;35840;45.982;8.890;2023-05-07T09:15:49;1.70;;;1.48;;
49948;SDS011;35840;45.982;8.890;2023-05-07T09:18:18;2.08;;;1.50;;
49948;SDS011;35840;45.982;8.890;2023-05-07T09:20:47;2.47;;;1.17;;
49948;SDS011;35840;45.982;8.890;2023-05-07T09:23:16;1.60;;;1.50;;
49948;SDS011;35840;45.982;8.890;2023-05-07T09:25:43;2.60;;;1.10;;
49948;SDS011;35840;45.982;8.890;2023-05-07T09:28:20;2.42;;;1.40;;
49948;SDS011;35840;45.982;8.890;2023-05-07T09:30:47;2.67;;;1.42;;
49948;SDS011;35840;45.982;8.890;2023-05-07T09:33:14;1.25;;;1.15;;
49948;SDS011;35840;45.982;8.890;2023-05-07T09:35:45;2.20;;;1.50;;
49948;SDS011;35840;45.982;8.890;2023-05-07T09:38:18;1.52;;;1.42;;
49948;SDS011;35840;45.982;8.890;2023-05-07T09:44:01;3.20;;;1.75;;
49948;SDS011;35840;45.982;8.890;2023-05-07T09:46:36;4.15;;;1.90;;
49948;SDS011;35840;45.982;8.890;2023-05-07T09:49:21;1.65;;;1.50;;
49948;SDS011;35840;45.982;8.890;2023-05-07T09:51:53;4.63;;;1.88;;
49948;SDS011;35840;45.982;8.890;2023-05-07T09:54:24;3.00;;;1.48;;
49948;SDS011;35840;45.982;8.890;2023-05-07T09:56:54;3.30;;;1.58;;
49948;SDS011;35840;45.982;8.890;2023-05-07T09:59:24;1.40;;;1.30;;
49948;SDS011;35840;45.982;8.890;2023-05-07T10:01:59;2.72;;;1.70;;
49948;SDS011;35840;45.982;8.890;2023-05-07T10:07:01;1.98;;;1.35;;
49948;SDS011;35840;45.982;8.890;2023-05-07T10:09:31;1.70;;;1.20;;
49948;SDS011;35840;45.982;8.890;2023-05-07T10:11:59;2.00;;;1.55;;
49948;SDS011;35840;45.982;8.890;2023-05-07T10:14:27;1.55;;;1.45;;
49948;SDS011;35840;45.982;8.890;2023-05-07T10:16:55;1.65;;;1.20;;
49948;SDS011;35840;45.982;8.890;2023-05-07T10:19:24;2.83;;;1.77;;
49948;SDS011;35840;45.982;8.890;2023-05-07T10:21:54;1.20;;;1.08;;
49948;SDS011;35840;45.982;8.890;2023-05-07T10:24:26;2.95;;;1.50;;
49948;SDS011;35840;45.982;8.890;2023-05-07T10:26:57;1.70;;;1.60;;
49948;SDS011;35840;45.982;8.890;2023-05-07T10:34:39;1.33;;;1.23;;
49948;SDS011;35840;45.982;8.890;2023-05-07T10:37:10;1.35;;;1.20;;
49948;SDS011;35840;45.982;8.890;2023-05-07T10:39:38;2.65;;;1.52;;
49948;SDS011;35840;45.982;8.890;2023-05-07T10:42:08;1.40;;;1.27;;
49948;SDS011;35840;45.982;8.890;2023-05-07T10:44:45;1.20;;;1.20;;
49948;SDS011;35840;45.982;8.890;2023-05-07T10:47:19;1.00;;;1.00;;
49948;SDS011;35840;45.982;8.890;2023-05-07T10:52:28;2.10;;;1.85;;
49948;SDS011;35840;45.982;8.890;2023-05-07T10:55:25;4.15;;;2.08;;
49948;SDS011;35840;45.982;8.890;2023-05-07T10:58:25;1.52;;;1.42;;
49948;SDS011;35840;45.982;8.890;2023-05-07T11:01:08;1.67;;;1.58;;
49948;SDS011;35840;45.982;8.890;2023-05-07T11:04:12;1.77;;;1.67;;
49948;SDS011;35840;45.982;8.890;2023-05-07T11:18:52;2.88;;;2.67;;
49948;SDS011;35840;45.982;8.890;2023-05-07T11:21:35;2.73;;;2.53;;
49948;SDS011;35840;45.982;8.890;2023-05-07T11:24:16;5.60;;;3.05;;
49948;SDS011;35840;45.982;8.890;2023-05-07T11:26:51;3.83;;;3.15;;
49948;SDS011;35840;45.982;8.890;2023-05-07T11:29:20;5.32;;;3.47;;
49948;SDS011;35840;45.982;8.890;2023-05-07T11:31:54;5.40;;;3.33;;
49948;SDS011;35840;45.982;8.890;2023-05-07T11:34:26;3.28;;;2.97;;
49948;SDS011;35840;45.982;8.890;2023-05-07T11:36:56;3.63;;;3.33;;
49948;SDS011;35840;45.982;8.890;2023-05-07T11:39:37;3.15;;;2.80;;
49948;SDS011;35840;45.982;8.890;2023-05-07T11:42:04;3.20;;;2.88;;
49948;SDS011;35840;45.982;8.890;2023-05-07T11:44:41;3.47;;;2.90;;
49948;SDS011;35840;45.982;8.890;2023-05-07T11:47:08;2.83;;;2.58;;
49948;SDS011;35840;45.982;8.890;2023-05-07T11:49:36;5.50;;;2.97;;
49948;SDS011;35840;45.982;8.890;2023-05-07T11:52:03;5.30;;;3.35;;
49948;SDS011;35840;45.982;8.890;2023-05-07T11:54:35;4.55;;;3.20;;
49948;SDS011;35840;45.982;8.890;2023-05-07T11:57:03;5.47;;;3.47;;
49948;SDS011;35840;45.982;8.890;2023-05-07T11:59:30;3.40;;;3.10;;
49948;SDS011;35840;45.982;8.890;2023-05-07T12:01:57;3.45;;;3.00;;
49948;SDS011;35840;45.982;8.890;2023-05-07T12:04:25;3.97;;;3.00;;
49948;SDS011;35840;45.982;8.890;2023-05-07T12:06:55;3.65;;;3.35;;
49948;SDS011;35840;45.982;8.890;2023-05-07T12:09:22;6.15;;;3.35;;
49948;SDS011;35840;45.982;8.890;2023-05-07T12:11:49;4.43;;;4.03;;
49948;SDS011;35840;45.982;8.890;2023-05-07T12:14:17;8.18;;;3.83;;
49948;SDS011;35840;45.982;8.890;2023-05-07T12:16:44;3.40;;;3.20;;
49948;SDS011;35840;45.982;8.890;2023-05-07T12:19:12;3.25;;;3.05;;
49948;SDS011;35840;45.982;8.890;2023-05-07T12:21:41;4.88;;;3.45;;
49948;SDS011;35840;45.982;8.890;2023-05-07T12:24:08;3.15;;;2.78;;
49948;SDS011;35840;45.982;8.890;2023-05-07T12:26:38;3.20;;;3.00;;
49948;SDS011;35840;45.982;8.890;2023-05-07T12:29:07;3.67;;;3.38;;
49948;SDS011;35840;45.982;8.890;2023-05-07T12:31:34;5.28;;;3.53;;
49948;SDS011;35840;45.982;8.890;2023-05-07T12:34:00;3.20;;;3.00;;
49948;SDS011;35840;45.982;8.890;2023-05-07T12:36:36;2.67;;;2.47;;
49948;SDS011;35840;45.982;8.890;2023-05-07T12:39:05;3.30;;;3.00;;
49948;SDS011;35840;45.982;8.890;2023-05-07T12:41:35;3.55;;;3.25;;
49948;SDS011;35840;45.982;8.890;2023-05-07T12:46:46;3.40;;;2.90;;
49948;SDS011;35840;45.982;8.890;2023-05-07T12:49:14;7.10;;;3.20;;
49948;SDS011;35840;45.982;8.890;2023-05-07T12:51:41;7.43;;;2.97;;
49948;SDS011;35840;45.982;8.890;2023-05-07T12:54:08;3.20;;;2.90;;
49948;SDS011;35840;45.982;8.890;2023-05-07T12:56:37;2.60;;;2.40;;
49948;SDS011;35840;45.982;8.890;2023-05-07T12:59:04;5.00;;;2.83;;
49948;SDS011;35840;45.982;8.890;2023-05-07T13:01:31;3.55;;;3.25;;
49948;SDS011;35840;45.982;8.890;2023-05-07T13:04:01;5.28;;;2.95;;
49948;SDS011;35840;45.982;8.890;2023-05-07T13:06:29;3.38;;;2.95;;
49948;SDS011;35840;45.982;8.890;2023-05-07T13:08:56;3.35;;;3.05;;
49948;SDS011;35840;45.982;8.890;2023-05-07T13:11:23;5.80;;;4.03;;
49948;SDS011;35840;45.982;8.890;2023-05-07T13:13:50;3.15;;;2.88;;
49948;SDS011;35840;45.982;8.890;2023-05-07T13:16:16;4.65;;;3.63;;
49948;SDS011;35840;45.982;8.890;2023-05-07T13:18:47;3.45;;;3.15;;
49948;SDS011;35840;45.982;8.890;2023-05-07T13:21:14;3.65;;;3.17;;
49948;SDS011;35840;45.982;8.890;2023-05-07T13:23:41;5.70;;;2.83;;
49948;SDS011;35840;45.982;8.890;2023-05-07T13:26:07;4.40;;;3.20;;
49948;SDS011;35840;45.982;8.890;2023-05-07T13:28:52;3.58;;;3.10;;
49948;SDS011;35840;45.982;8.890;2023-05-07T13:31:21;4.22;;;2.88;;
49948;SDS011;35840;45.982;8.890;2023-05-07T13:33:48;2.90;;;2.70;;
49948;SDS011;35840;45.982;8.890;2023-05-07T13:36:15;3.30;;;3.00;;
49948;SDS011;35840;45.982;8.890;2023-05-07T13:38:41;3.50;;;3.20;;
49948;SDS011;35840;45.982;8.890;2023-05-07T13:41:08;3.85;;;3.55;;
49948;SDS011;35840;45.982;8.890;2023-05-07T13:43:35;2.90;;;2.70;;
49948;SDS011;35840;45.982;8.890;2023-05-07T13:46:02;3.10;;;2.80;;
49948;SDS011;35840;45.982;8.890;2023-05-07T13:48:29;3.25;;;2.80;;
49948;SDS011;35840;45.982;8.890;2023-05-07T13:50:55;3.17;;;2.85;;
49948;SDS011;35840;45.982;8.890;2023-05-07T13:53:22;3.22;;;2.95;;
49948;SDS011;35840;45.982;8.890;2023-05-07T13:55:49;2.78;;;2.58;;
49948;SDS011;35840;45.982;8.890;2023-05-07T13:58:16;3.08;;;2.83;;
49948;SDS011;35840;45.982;8.890;2023-05-07T14:00:43;3.25;;;2.95;;
49948;SDS011;35840;45.982;8.890;2023-05-07T14:03:09;2.55;;;2.35;;
49948;SDS011;35840;45.982;8.890;2023-05-07T14:05:36;3.97;;;3.20;;
49948;SDS011;35840;45.982;8.890;2023-05-07T14:08:03;3.92;;;2.80;;
49948;SDS011;35840;45.982;8.890;2023-05-07T14:10:31;2.80;;;2.60;;
49948;SDS011;35840;45.982;8.890;2023-05-07T14:13:00;3.03;;;2.83;;
49948;SDS011;35840;45.982;8.890;2023-05-07T14:15:27;2.60;;;2.40;;
49948;SDS011;35840;45.982;8.890;2023-05-07T14:17:54;3.55;;;3.05;;
49948;SDS011;35840;45.982;8.890;2023-05-07T14:20:21;2.63;;;2.42;;
49948;SDS011;35840;45.982;8.890;2023-05-07T14:22:48;2.53;;;2.38;;
49948;SDS011;35840;45.982;8.890;2023-05-07T14:25:14;2.85;;;2.65;;
49948;SDS011;35840;45.982;8.890;2023-05-07T14:27:47;3.10;;;2.70;;
49948;SDS011;35840;45.982;8.890;2023-05-07T14:30:14;12.15;;;3.65;;
49948;SDS011;35840;45.982;8.890;2023-05-07T14:32:41;4.13;;;2.80;;
49948;SDS011;35840;45.982;8.890;2023-05-07T14:35:08;2.88;;;2.58;;
49948;SDS011;35840;45.982;8.890;2023-05-07T14:37:35;3.95;;;2.75;;
49948;SDS011;35840;45.982;8.890;2023-05-07T14:40:01;2.60;;;2.40;;
49948;SDS011;35840;45.982;8.890;2023-05-07T14:42:29;2.42;;;2.22;;
49948;SDS011;35840;45.982;8.890;2023-05-07T14:44:55;3.03;;;2.28;;
49948;SDS011;35840;45.982;8.890;2023-05-07T14:47:22;3.17;;;2.85;;
49948;SDS011;35840;45.982;8.890;2023-05-07T14:49:49;3.03;;;2.30;;
49948;SDS011;35840;45.982;8.890;2023-05-07T14:52:16;3.75;;;3.42;;
49948;SDS011;35840;45.982;8.890;2023-05-07T14:54:42;4.80;;;3.10;;
49948;SDS011;35840;45.982;8.890;2023-05-07T14:57:10;2.90;;;2.70;;
49948;SDS011;35840;45.982;8.890;2023-05-07T14:59:39;2.92;;;2.72;;
49948;SDS011;35840;45.982;8.890;2023-05-07T15:02:07;2.58;;;2.38;;
49948;SDS011;35840;45.982;8.890;2023-05-07T15:04:37;2.80;;;2.60;;
49948;SDS011;35840;45.982;8.890;2023-05-07T15:07:04;2.17;;;2.00;;
49948;SDS011;35840;45.982;8.890;2023-05-07T15:09:31;3.10;;;2.13;;
49948;SDS011;35840;45.982;8.890;2023-05-07T15:11:57;2.33;;;2.10;;
49948;SDS011;35840;45.982;8.890;2023-05-07T15:14:24;2.70;;;2.20;;
49948;SDS011;35840;45.982;8.890;2023-05-07T15:16:51;2.65;;;2.42;;
49948;SDS011;35840;45.982;8.890;2023-05-07T15:19:17;2.55;;;2.22;;
49948;SDS011;35840;45.982;8.890;2023-05-07T15:21:44;2.67;;;2.47;;
49948;SDS011;35840;45.982;8.890;2023-05-07T15:24:11;2.65;;;2.45;;
49948;SDS011;35840;45.982;8.890;2023-05-07T15:26:39;2.70;;;2.50;;